createdAt,value
2023-02-03T00:04:25.137Z,100931.06
2023-02-03T00:09:26.571Z,100923.97
2023-02-03T00:14:28.002Z,100918.56
2023-02-03T00:19:29.413Z,100920.50
2023-02-03T00:24:30.830Z,100918.56
2023-02-03T00:29:32.394Z,100917.41
2023-02-03T00:34:33.779Z,100918.47
2023-02-03T00:39:38.273Z,100909.56
2023-02-03T00:44:39.672Z,100910.47
2023-02-03T00:49:41.142Z,100898.97
2023-02-03T00:54:42.674Z,100883.97
2023-02-03T00:59:44.120Z,100889.63
2023-02-03T01:04:45.584Z,100888.97
2023-02-03T01:09:47.049Z,100885.50
2023-02-03T01:14:48.461Z,100884.25
2023-02-03T01:19:51.417Z,100872.19
2023-02-03T01:24:52.872Z,100859.66
2023-02-03T01:29:54.353Z,100847.00
2023-02-03T01:34:55.819Z,100841.59
2023-02-03T01:39:57.766Z,100826.19
2023-02-03T01:44:59.265Z,100822.06
2023-02-03T01:50:16.146Z,100804.03
2023-02-03T01:55:21.053Z,100781.63
2023-02-03T02:00:22.503Z,100778.06
2023-02-03T02:05:32.241Z,100752.03
2023-02-03T02:10:33.852Z,100743.91
2023-02-03T02:15:50.454Z,100733.53
2023-02-03T02:21:22.164Z,100729.13
2023-02-03T02:26:41.912Z,100737.03
2023-02-03T02:32:06.195Z,100747.50
2023-02-03T02:37:12.782Z,100729.34
2023-02-03T02:42:32.204Z,100727.00
2023-02-03T02:47:33.799Z,100720.56
2023-02-03T02:52:38.943Z,100696.75
2023-02-03T02:57:42.534Z,100674.44
2023-02-03T03:02:43.968Z,100666.47
2023-02-03T03:07:51.540Z,100657.16
2023-02-03T03:12:56.488Z,100633.47
2023-02-03T03:18:27.969Z,100617.38
2023-02-03T03:23:35.787Z,100605.94
2023-02-03T03:28:49.304Z,100613.00
2023-02-03T03:33:50.770Z,100606.69
2023-02-03T03:39:04.347Z,100601.56
2023-02-03T03:44:10.552Z,100609.25
2023-02-03T03:49:13.700Z,100607.63
2023-02-03T03:54:20.367Z,100596.34
2023-02-03T03:59:24.197Z,100595.16
2023-02-03T04:04:26.308Z,100591.97
2023-02-03T04:09:28.742Z,100585.81
2023-02-03T04:14:35.279Z,100584.22
2023-02-03T04:19:36.738Z,100574.69
2023-02-03T04:24:38.217Z,100570.69
2023-02-03T04:29:39.632Z,100550.75
2023-02-03T04:34:41.210Z,100550.00
2023-02-03T04:39:42.690Z,100524.31
2023-02-03T04:44:44.369Z,100508.25
2023-02-03T04:49:45.818Z,100511.88
2023-02-03T04:54:47.491Z,100496.94
2023-02-03T04:59:48.981Z,100503.91
2023-02-03T05:04:50.382Z,100488.22
2023-02-03T05:09:51.775Z,100466.00
2023-02-03T05:14:53.251Z,100468.34
2023-02-03T05:19:54.665Z,100473.31
2023-02-03T05:24:56.118Z,100452.97
2023-02-03T05:29:57.574Z,100447.59
2023-02-03T05:34:59.026Z,100438.59
2023-02-03T05:40:20.406Z,100439.03
2023-02-03T05:45:21.823Z,100426.84
2023-02-03T05:50:23.405Z,100425.41
2023-02-03T05:55:24.836Z,100409.44
2023-02-03T06:00:26.520Z,100400.91
2023-02-03T06:05:29.569Z,100379.31
2023-02-03T06:10:30.992Z,100370.81
2023-02-03T06:15:32.393Z,100353.13
2023-02-03T06:20:33.832Z,100342.81
2023-02-03T06:25:35.295Z,100339.13
2023-02-03T06:30:37.091Z,100337.38
2023-02-03T06:35:38.619Z,100317.97
2023-02-03T06:40:40.069Z,100302.13
2023-02-03T06:45:41.755Z,100289.84
2023-02-03T06:50:43.272Z,100272.75
2023-02-03T06:55:44.743Z,100270.91
2023-02-03T07:00:46.144Z,100238.25
2023-02-03T07:05:47.585Z,100226.50
2023-02-03T07:10:53.753Z,100216.97
2023-02-03T07:15:55.237Z,100221.44
2023-02-03T07:20:56.664Z,100210.66
2023-02-03T07:26:02.975Z,100189.97
2023-02-03T07:31:04.872Z,100166.16
2023-02-03T07:36:07.921Z,100163.19
2023-02-03T07:41:09.359Z,100156.13
2023-02-03T07:46:10.900Z,100136.16
2023-02-03T07:51:12.380Z,100122.69
2023-02-03T07:56:13.891Z,100095.94
2023-02-03T08:01:16.858Z,100078.66
2023-02-03T08:06:18.536Z,100068.84
2023-02-03T08:11:19.947Z,100057.78
2023-02-03T08:16:21.454Z,100038.78
2023-02-03T08:21:22.910Z,100033.03
2023-02-03T08:26:24.356Z,100013.44
2023-02-03T08:31:25.877Z,100000.22
2023-02-03T08:36:42.588Z,99989.31
2023-02-03T08:41:44.017Z,99978.34
2023-02-03T08:46:49.174Z,99962.56
2023-02-03T08:51:51.018Z,99947.91
2023-02-03T08:56:53.321Z,99945.75
2023-02-03T09:01:55.084Z,99929.59
2023-02-03T09:06:56.783Z,99917.91
2023-02-03T09:12:02.291Z,99913.19
2023-02-03T09:17:05.821Z,99899.00
2023-02-03T09:22:07.591Z,99886.88
2023-02-03T09:27:09.191Z,99880.94
2023-02-03T09:32:10.812Z,99863.16
2023-02-03T09:37:12.378Z,99858.88
2023-02-03T09:42:51.149Z,99838.50
2023-02-03T09:47:55.441Z,99816.88
2023-02-03T09:52:58.889Z,99804.97
2023-02-03T09:58:14.534Z,99801.91
2023-02-03T10:03:41.607Z,99789.72
2023-02-03T10:09:19.038Z,99768.53
2023-02-03T10:14:40.080Z,99746.06
2023-02-03T10:20:00.572Z,99729.91
2023-02-03T10:25:20.843Z,99709.56
2023-02-03T10:30:24.186Z,99687.00
2023-02-03T10:35:36.426Z,99671.59
2023-02-03T10:40:37.903Z,99661.59
2023-02-03T10:45:39.966Z,99631.25
2023-02-03T10:50:46.875Z,99611.22
2023-02-03T10:55:52.304Z,99582.41
2023-02-03T11:01:13.658Z,99586.97
2023-02-03T11:06:17.488Z,99572.09
2023-02-03T11:11:28.287Z,99554.28
2023-02-03T11:16:32.215Z,99536.56
2023-02-03T11:21:43.420Z,99509.81
2023-02-03T11:26:47.721Z,99497.13
2023-02-03T11:31:53.127Z,99476.41
2023-02-03T11:36:55.173Z,99466.84
2023-02-03T11:41:56.922Z,99440.72
2023-02-03T11:47:03.759Z,99427.75
2023-02-03T11:52:17.270Z,99430.50
2023-02-03T11:57:34.719Z,99422.41
2023-02-03T12:02:51.470Z,99406.09
2023-02-03T12:08:09.821Z,99380.03
2023-02-03T12:13:28.221Z,99376.66
2023-02-03T12:19:07.387Z,99373.28
2023-02-03T12:24:40.863Z,99367.78
2023-02-03T12:29:49.904Z,99337.47
2023-02-03T12:35:01.778Z,99320.81
2023-02-03T12:40:14.280Z,99303.94
2023-02-03T12:45:21.506Z,99311.41
2023-02-03T12:50:35.278Z,99278.34
2023-02-03T12:55:43.906Z,99287.31
2023-02-03T13:00:51.817Z,99253.13
2023-02-03T13:06:16.247Z,99262.91
2023-02-03T13:11:24.740Z,99266.50
2023-02-03T13:16:35.922Z,99258.22
2023-02-03T13:21:37.561Z,99236.81
2023-02-03T13:27:09.211Z,99255.34
2023-02-03T13:32:25.827Z,99253.31
2023-02-03T13:38:11.386Z,99247.84
2023-02-03T13:43:36.925Z,99251.47
2023-02-03T13:48:45.370Z,99272.59
2023-02-03T13:53:48.670Z,99259.78
2023-02-03T13:59:03.595Z,99266.44
2023-02-03T14:04:26.692Z,99296.69
2023-02-03T14:09:30.945Z,99316.22
2023-02-03T14:14:35.480Z,99313.56
2023-02-03T14:19:52.038Z,99322.13
2023-02-03T14:24:56.559Z,99315.25
2023-02-03T14:30:09.330Z,99321.88
2023-02-03T14:35:20.333Z,99314.78
2023-02-03T14:40:51.073Z,99320.97
2023-02-03T14:46:14.079Z,99317.63
2023-02-03T14:51:36.771Z,99337.97
2023-02-03T14:57:04.899Z,99351.00
2023-02-03T15:02:06.552Z,99367.47
2023-02-03T15:07:08.053Z,99365.59
2023-02-03T15:12:22.603Z,99360.78
2023-02-03T15:17:26.902Z,99361.66
2023-02-03T15:22:30.720Z,99357.06
2023-02-03T15:27:33.247Z,99370.91
2023-02-03T15:32:41.009Z,99358.72
2023-02-03T15:37:44.332Z,99367.75
2023-02-03T15:42:57.242Z,99377.50
2023-02-03T15:48:07.766Z,99383.97
2023-02-03T15:53:20.705Z,99384.78
2023-02-03T15:58:28.838Z,99390.97
2023-02-03T16:03:40.566Z,99398.72
2023-02-03T16:08:49.379Z,99404.00
2023-02-03T16:13:51.156Z,99394.41
2023-02-03T16:18:56.280Z,99406.41
2023-02-03T16:23:59.298Z,99399.31
2023-02-03T16:29:22.197Z,99430.03
2023-02-03T16:34:42.292Z,99428.22
2023-02-03T16:40:02.317Z,99449.75
2023-02-03T16:45:30.271Z,99479.53
2023-02-03T16:50:53.114Z,99467.13
2023-02-03T16:55:56.873Z,99484.25
2023-02-03T17:01:00.809Z,99487.47
2023-02-03T17:06:05.180Z,99494.31
2023-02-03T17:11:15.639Z,99519.00
2023-02-03T17:16:23.080Z,99516.63
2023-02-03T17:21:27.972Z,99511.63
2023-02-03T17:26:29.459Z,99521.91
2023-02-03T17:31:31.608Z,99510.94
2023-02-03T17:36:33.161Z,99506.53
2023-02-03T17:57:34.357Z,99526.25
2023-02-03T18:02:36.082Z,99527.78
2023-02-03T18:07:37.535Z,99537.31
2023-02-03T18:12:38.995Z,99525.75
2023-02-03T18:17:40.675Z,99532.47
2023-02-03T18:22:44.100Z,99532.97
2023-02-03T18:27:45.749Z,99530.22
2023-02-03T18:32:51.130Z,99530.56
2023-02-03T18:37:53.264Z,99527.69
2023-02-03T18:42:56.251Z,99520.44
2023-02-03T18:47:57.673Z,99526.06
2023-02-03T18:52:59.210Z,99527.88
2023-02-03T18:58:00.640Z,99543.31
2023-02-03T19:03:02.102Z,99566.03
2023-02-03T19:08:03.587Z,99552.41
2023-02-03T19:13:05.026Z,99552.34
2023-02-03T19:18:06.467Z,99542.09
2023-02-03T19:23:08.594Z,99555.44
2023-02-03T19:28:17.427Z,99548.69
2023-02-03T19:33:21.607Z,99548.66
2023-02-03T19:38:23.067Z,99540.91
2023-02-03T19:43:24.820Z,99539.53
2023-02-03T19:48:26.496Z,99530.47
2023-02-03T19:53:28.057Z,99533.84
2023-02-03T19:58:30.671Z,99542.09
2023-02-03T20:03:32.654Z,99525.22
2023-02-03T20:08:34.155Z,99544.69
2023-02-03T20:13:35.765Z,99531.59
2023-02-03T20:18:37.226Z,99565.88
2023-02-03T20:23:38.641Z,99546.81
2023-02-03T20:28:40.191Z,99540.19
2023-02-03T20:33:41.691Z,99550.50
2023-02-03T20:38:43.099Z,99563.50
2023-02-03T20:43:45.263Z,99558.59
2023-02-03T20:48:47.062Z,99524.16
2023-02-03T20:53:50.031Z,99541.84
2023-02-03T20:58:51.672Z,99547.25
2023-02-03T21:04:12.041Z,99547.38
2023-02-03T21:09:16.227Z,99525.75
2023-02-03T21:14:20.893Z,99532.75
2023-02-03T21:19:33.529Z,99534.28
2023-02-03T21:24:37.943Z,99529.97
2023-02-03T21:29:40.486Z,99523.41
2023-02-03T21:34:45.113Z,99525.78
2023-02-03T21:39:47.736Z,99510.41
2023-02-03T21:44:49.168Z,99520.22
2023-02-03T21:49:50.621Z,99521.31
2023-02-03T21:54:52.033Z,99518.47
2023-02-03T21:59:53.457Z,99526.16
2023-02-03T22:04:55.209Z,99514.22
2023-02-03T22:09:56.614Z,99522.06
2023-02-03T22:14:58.009Z,99526.41
2023-02-03T22:19:59.460Z,99530.00
2023-02-03T22:25:00.903Z,99513.59
2023-02-03T22:30:02.334Z,99506.91
2023-02-03T22:35:03.843Z,99522.13
2023-02-03T22:40:05.829Z,99525.88
2023-02-03T22:45:08.123Z,99522.84
2023-02-03T22:50:11.950Z,99510.59
2023-02-03T22:55:13.380Z,99502.16
2023-02-03T23:00:20.406Z,99508.25
2023-02-03T23:05:22.451Z,99520.13
2023-02-03T23:10:26.142Z,99519.84
2023-02-03T23:15:28.513Z,99507.63
2023-02-03T23:20:30.373Z,99519.84
2023-02-03T23:25:31.981Z,99509.22
2023-02-03T23:30:34.141Z,99515.25
2023-02-03T23:35:47.422Z,99509.44
2023-02-03T23:40:48.998Z,99506.47
2023-02-03T23:45:50.478Z,99526.19
2023-02-03T23:50:51.890Z,99546.06
2023-02-03T23:55:53.295Z,99547.09
